createdAt,value
2018-05-01T00:00:32.214Z,0
2018-05-01T00:01:41.959Z,0
2018-05-01T00:02:51.960Z,0
2018-05-01T00:06:15.354Z,0
2018-05-01T00:07:25.376Z,0
2018-05-01T00:08:34.322Z,0
2018-05-01T00:09:44.077Z,0
2018-05-01T00:10:54.095Z,0
2018-05-01T00:12:03.323Z,0
2018-05-01T00:13:12.821Z,0
2018-05-01T00:14:22.848Z,0
2018-05-01T00:15:32.064Z,0
2018-05-01T00:17:45.447Z,0
2018-05-01T00:18:54.980Z,0
2018-05-01T00:20:04.753Z,0
2018-05-01T00:21:14.497Z,0
2018-05-01T00:22:24.504Z,0
2018-05-01T00:23:33.981Z,0
2018-05-01T00:24:43.718Z,0
2018-05-01T00:25:53.184Z,0
2018-05-01T00:27:03.196Z,0
2018-05-01T00:28:12.674Z,0
2018-05-01T00:29:22.684Z,0
2018-05-01T00:30:32.420Z,0
2018-05-01T00:31:41.894Z,0
2018-05-01T00:32:51.633Z,0
2018-05-01T00:34:01.739Z,0
2018-05-01T00:35:11.742Z,0
2018-05-01T00:36:21.478Z,0
2018-05-01T00:37:31.484Z,0
2018-05-01T00:38:40.965Z,0
2018-05-01T00:39:50.703Z,0
2018-05-01T00:41:00.441Z,0
2018-05-01T00:42:10.190Z,0
2018-05-01T00:43:19.664Z,0
2018-05-01T00:44:29.135Z,0
2018-05-01T00:45:39.148Z,0
2018-05-01T00:46:48.889Z,0
2018-05-01T00:47:58.630Z,0
2018-05-01T00:49:07.833Z,0
2018-05-01T00:50:17.571Z,0
2018-05-01T00:51:27.801Z,0
2018-05-01T00:52:37.904Z,0
2018-05-01T00:53:47.920Z,0
2018-05-01T00:54:57.932Z,0
2018-05-01T00:56:07.673Z,0
2018-05-01T00:57:17.678Z,0
2018-05-01T00:58:27.682Z,0
2018-05-01T00:59:37.156Z,0
2018-05-01T01:00:46.359Z,0
2018-05-01T01:01:56.385Z,0
2018-05-01T01:03:06.388Z,0
2018-05-01T01:04:16.140Z,0
2018-05-01T01:05:25.871Z,0
2018-05-01T01:06:35.872Z,0
2018-05-01T01:07:45.620Z,0
2018-05-01T01:08:55.094Z,0
2018-05-01T01:10:05.105Z,0
2018-05-01T01:11:14.580Z,0
2018-05-01T01:12:24.320Z,0
2018-05-01T01:13:34.051Z,0
2018-05-01T01:14:43.788Z,0
2018-05-01T01:15:53.789Z,0
2018-05-01T01:17:03.795Z,0
2018-05-01T01:18:13.625Z,0
2018-05-01T01:19:23.628Z,0
2018-05-01T01:20:33.372Z,0
2018-05-01T01:21:43.381Z,0
2018-05-01T01:22:53.125Z,0
2018-05-01T01:24:02.862Z,0
2018-05-01T01:25:12.342Z,0
2018-05-01T01:26:21.866Z,0
2018-05-01T01:27:31.606Z,0
2018-05-01T01:28:41.352Z,0
2018-05-01T01:29:51.352Z,0
2018-05-01T01:31:01.360Z,0
2018-05-01T01:32:10.846Z,0
2018-05-01T01:33:20.853Z,0
2018-05-01T01:34:30.066Z,0
2018-05-01T01:35:39.813Z,0
2018-05-01T01:36:49.571Z,0
2018-05-01T01:38:00.015Z,0
2018-05-01T01:39:10.040Z,0
2018-05-01T01:40:20.044Z,0
2018-05-01T01:41:29.520Z,0
2018-05-01T01:42:39.536Z,0
2018-05-01T01:43:49.539Z,0
2018-05-01T01:44:59.283Z,0
2018-05-01T01:46:08.490Z,0
2018-05-01T01:47:18.229Z,0
2018-05-01T01:48:28.234Z,0
2018-05-01T01:49:38.235Z,0
2018-05-01T01:50:47.975Z,0
2018-05-01T01:51:57.982Z,0
2018-05-01T01:53:07.721Z,0
2018-05-01T01:54:17.465Z,0
2018-05-01T01:55:27.209Z,0
2018-05-01T01:56:37.220Z,0
2018-05-01T01:57:47.225Z,0
2018-05-01T01:58:56.695Z,0
2018-05-01T02:00:06.167Z,0
2018-05-01T02:01:16.168Z,0
2018-05-01T02:02:25.914Z,0
2018-05-01T02:03:35.659Z,0
2018-05-01T02:04:45.404Z,0
2018-05-01T02:05:54.873Z,0
2018-05-01T02:07:04.610Z,0
2018-05-01T02:08:14.621Z,0
2018-05-01T02:09:24.619Z,0
2018-05-01T02:10:34.087Z,0
2018-05-01T02:11:44.100Z,0
2018-05-01T02:12:53.842Z,0
2018-05-01T02:14:03.856Z,0
2018-05-01T02:15:13.863Z,0
2018-05-01T02:16:23.867Z,0
2018-05-01T02:17:33.878Z,0
2018-05-01T02:18:43.394Z,0
2018-05-01T02:19:53.406Z,0
2018-05-01T02:21:03.147Z,0
2018-05-01T02:22:12.886Z,0
2018-05-01T02:23:22.891Z,0
2018-05-01T02:24:32.634Z,0
2018-05-01T02:25:42.719Z,0
2018-05-01T02:26:52.724Z,0
2018-05-01T02:28:02.193Z,0
2018-05-01T02:29:12.198Z,0
2018-05-01T02:30:22.221Z,0
2018-05-01T02:31:31.961Z,0
2018-05-01T02:32:41.979Z,0
2018-05-01T02:33:51.990Z,4
2018-05-01T02:35:01.736Z,4
2018-05-01T02:36:11.218Z,4
2018-05-01T02:37:21.231Z,0
2018-05-01T02:38:31.243Z,4
2018-05-01T02:39:40.712Z,4
2018-05-01T02:40:50.466Z,4
2018-05-01T02:42:00.469Z,4
2018-05-01T02:43:10.216Z,4
2018-05-01T02:44:19.953Z,4
2018-05-01T02:45:29.969Z,4
2018-05-01T02:46:39.444Z,8
2018-05-01T02:47:49.459Z,4
2018-05-01T02:48:59.202Z,8
2018-05-01T02:50:08.976Z,12
2018-05-01T02:51:18.459Z,8
2018-05-01T02:52:28.204Z,12
2018-05-01T02:53:37.946Z,12
2018-05-01T02:54:47.701Z,12
2018-05-01T02:55:57.452Z,12
2018-05-01T02:57:07.472Z,16
2018-05-01T02:58:17.485Z,16
2018-05-01T02:59:27.499Z,16
2018-05-01T03:03:27.214Z,24
2018-05-01T03:04:37.218Z,24
2018-05-01T03:05:47.255Z,28
2018-05-01T03:06:56.998Z,28
2018-05-01T03:08:07.012Z,28
2018-05-01T03:09:17.018Z,32
2018-05-01T03:10:27.028Z,32
2018-05-01T03:11:37.043Z,36
2018-05-01T03:12:46.517Z,36
2018-05-01T03:13:56.259Z,44
2018-05-01T03:15:06.325Z,44
2018-05-01T03:16:16.066Z,44
2018-05-01T03:17:25.537Z,44
2018-05-01T03:18:35.540Z,44
2018-05-01T03:19:45.274Z,44
2018-05-01T03:20:55.277Z,44
2018-05-01T03:22:05.019Z,44
2018-05-01T03:23:14.752Z,40
2018-05-01T03:24:24.499Z,40
2018-05-01T03:25:34.105Z,44
2018-05-01T03:26:43.851Z,40
2018-05-01T03:27:53.586Z,44
2018-05-01T03:29:03.600Z,48
2018-05-01T03:30:13.340Z,44
2018-05-01T03:31:23.360Z,48
2018-05-01T03:32:32.846Z,52
2018-05-01T03:33:42.633Z,60
2018-05-01T03:34:52.366Z,68
2018-05-01T03:36:02.103Z,72
2018-05-01T03:37:11.843Z,80
2018-05-01T03:38:21.843Z,80
2018-05-01T03:39:31.319Z,92
2018-05-01T03:40:41.320Z,100
2018-05-01T03:41:51.336Z,100
2018-05-01T03:43:01.352Z,108
2018-05-01T03:44:11.093Z,112
2018-05-01T03:45:20.562Z,116
2018-05-01T03:46:30.573Z,120
2018-05-01T03:47:40.572Z,120
2018-05-01T03:48:50.579Z,132
2018-05-01T03:50:00.577Z,144
2018-05-01T03:51:09.878Z,152
2018-05-01T03:52:19.345Z,164
2018-05-01T03:53:29.349Z,164
2018-05-01T03:54:39.351Z,172
2018-05-01T03:55:49.429Z,180
2018-05-01T03:56:59.563Z,192
2018-05-01T03:58:09.037Z,200
2018-05-01T03:59:19.038Z,216
2018-05-01T04:00:28.507Z,232
2018-05-01T04:01:38.515Z,256
2018-05-01T04:02:48.258Z,280
2018-05-01T04:03:58.259Z,320
2018-05-01T04:05:08.265Z,356
2018-05-01T04:06:18.278Z,388
2018-05-01T04:07:28.017Z,412
2018-05-01T04:08:38.021Z,404
2018-05-01T04:09:48.023Z,408
2018-05-01T04:10:58.024Z,408
2018-05-01T04:12:07.757Z,408
2018-05-01T04:13:17.769Z,416
2018-05-01T04:14:27.875Z,432
2018-05-01T04:15:37.613Z,440
2018-05-01T04:16:47.617Z,428
2018-05-01T04:17:57.618Z,440
2018-05-01T04:19:07.627Z,492
2018-05-01T04:20:17.364Z,516
2018-05-01T04:21:26.564Z,524
2018-05-01T04:22:36.569Z,568
2018-05-01T04:23:46.304Z,620
2018-05-01T04:24:56.308Z,660
2018-05-01T04:26:06.311Z,736
2018-05-01T04:27:15.777Z,724
2018-05-01T04:28:25.514Z,752
2018-05-01T04:29:35.517Z,840
2018-05-01T04:30:45.526Z,848
2018-05-01T04:31:55.528Z,892
2018-05-01T04:33:05.529Z,932
2018-05-01T04:34:15.532Z,876
2018-05-01T04:35:25.265Z,800
2018-05-01T04:36:34.749Z,700
2018-05-01T04:37:44.756Z,764
2018-05-01T04:38:54.830Z,752
2018-05-01T04:40:04.577Z,664
2018-05-01T04:41:14.575Z,680
2018-05-01T04:42:24.577Z,664
2018-05-01T04:43:34.310Z,616
2018-05-01T04:44:44.050Z,616
2018-05-01T04:45:53.791Z,648
2018-05-01T04:47:03.526Z,636
2018-05-01T04:48:12.994Z,616
2018-05-01T04:49:22.726Z,668
2018-05-01T04:50:32.768Z,672
2018-05-01T04:51:42.899Z,672
2018-05-01T04:52:53.021Z,680
2018-05-01T04:54:03.090Z,676
2018-05-01T04:55:13.093Z,648
2018-05-01T04:56:23.093Z,692
2018-05-01T04:57:33.101Z,708
2018-05-01T04:58:43.222Z,744
2018-05-01T04:59:53.230Z,784
2018-05-01T05:01:03.228Z,812
2018-05-01T05:02:13.229Z,812
2018-05-01T05:03:23.230Z,760
2018-05-01T05:04:32.974Z,812
2018-05-01T05:05:42.991Z,716
2018-05-01T05:06:52.997Z,644
2018-05-01T05:08:03.012Z,736
2018-05-01T05:09:12.485Z,716
2018-05-01T05:10:22.220Z,648
2018-05-01T05:11:31.684Z,640
2018-05-01T05:12:41.417Z,636
2018-05-01T05:13:51.426Z,616
2018-05-01T05:15:01.168Z,604
2018-05-01T05:16:10.911Z,628
2018-05-01T05:17:21.015Z,632
2018-05-01T05:18:31.018Z,692
2018-05-01T05:19:40.758Z,672
2018-05-01T05:20:50.773Z,664
2018-05-01T05:22:00.849Z,740
2018-05-01T05:23:10.845Z,676
2018-05-01T05:24:20.849Z,672
2018-05-01T05:25:30.861Z,672
2018-05-01T05:26:40.597Z,740
2018-05-01T05:27:50.640Z,748
2018-05-01T05:29:00.389Z,820
2018-05-01T05:30:10.173Z,856
2018-05-01T05:31:19.908Z,848
2018-05-01T05:32:29.922Z,784
2018-05-01T05:33:39.927Z,800
2018-05-01T05:34:49.936Z,888
2018-05-01T05:35:59.948Z,948
2018-05-01T05:37:09.954Z,824
2018-05-01T05:38:19.960Z,856
2018-05-01T05:39:29.971Z,904
2018-05-01T05:40:39.975Z,800
2018-05-01T05:41:49.981Z,808
2018-05-01T05:43:00.140Z,828
2018-05-01T05:44:09.881Z,864
2018-05-01T05:45:19.881Z,872
2018-05-01T05:46:29.881Z,836
2018-05-01T05:47:39.888Z,896
2018-05-01T05:48:50.061Z,996
2018-05-01T05:50:00.161Z,984
2018-05-01T05:51:09.898Z,888
2018-05-01T05:52:19.651Z,988
2018-05-01T05:53:29.663Z,932
2018-05-01T05:54:39.663Z,1024
2018-05-01T05:55:49.665Z,916
2018-05-01T05:56:59.667Z,928
2018-05-01T05:58:09.142Z,1044
2018-05-01T05:59:18.660Z,1064
2018-05-01T06:00:28.134Z,1100
2018-05-01T06:01:37.865Z,1080
2018-05-01T06:02:47.872Z,1052
2018-05-01T06:03:57.883Z,1096
2018-05-01T06:05:07.618Z,984
2018-05-01T06:06:17.619Z,992
2018-05-01T06:07:27.361Z,1076
2018-05-01T06:08:36.830Z,1060
2018-05-01T06:09:46.840Z,1028
2018-05-01T06:10:56.841Z,1140
2018-05-01T06:12:06.578Z,1124
2018-05-01T06:13:16.322Z,1176
2018-05-01T06:14:26.330Z,1116
2018-05-01T06:15:35.808Z,1224
2018-05-01T06:16:45.546Z,1164
2018-05-01T06:17:55.280Z,1068
2018-05-01T06:19:05.296Z,1068
2018-05-01T06:20:14.767Z,972
2018-05-01T06:21:24.767Z,996
2018-05-01T06:22:34.504Z,1072
2018-05-01T06:23:44.504Z,956
2018-05-01T06:24:54.505Z,948
2018-05-01T06:26:04.243Z,976
2018-05-01T06:27:13.982Z,1020
2018-05-01T06:28:23.996Z,1056
2018-05-01T06:29:33.466Z,1120
2018-05-01T06:30:43.476Z,1244
2018-05-01T06:31:53.486Z,1240
2018-05-01T06:33:03.487Z,1296
2018-05-01T06:34:13.226Z,1244
2018-05-01T06:35:22.967Z,1152
2018-05-01T06:36:32.979Z,1300
2018-05-01T06:37:42.991Z,1148
2018-05-01T06:38:52.460Z,1212
2018-05-01T06:40:02.459Z,1268
2018-05-01T06:41:12.011Z,1284
2018-05-01T06:42:22.010Z,1368
2018-05-01T06:43:32.008Z,1420
2018-05-01T06:44:42.006Z,1432
2018-05-01T06:45:52.020Z,1488
2018-05-01T06:47:02.019Z,1404
2018-05-01T06:48:11.760Z,1328
2018-05-01T06:49:21.498Z,1416
2018-05-01T06:50:30.969Z,1616
2018-05-01T06:51:41.080Z,1532
2018-05-01T06:52:51.079Z,1596
2018-05-01T06:54:01.083Z,1588
2018-05-01T06:55:10.817Z,1476
2018-05-01T06:56:20.297Z,1424
2018-05-01T06:57:30.306Z,1484
2018-05-01T06:58:40.310Z,1496
2018-05-01T06:59:50.051Z,1556
2018-05-01T07:00:59.785Z,1548
2018-05-01T07:02:09.866Z,1596
2018-05-01T07:03:19.610Z,1680
2018-05-01T07:04:30.283Z,1724
2018-05-01T07:05:40.351Z,1720
2018-05-01T07:06:50.349Z,1824
2018-05-01T07:08:00.349Z,1780
2018-05-01T07:09:10.362Z,1732
2018-05-01T07:10:20.599Z,1584
2018-05-01T07:11:30.777Z,1648
2018-05-01T07:12:40.777Z,1648
2018-05-01T07:13:50.776Z,1748
2018-05-01T07:15:00.877Z,1848
2018-05-01T07:16:10.616Z,1932
2018-05-01T07:17:20.350Z,1756
2018-05-01T07:18:30.106Z,1880
2018-05-01T07:19:40.119Z,1948
2018-05-01T07:20:50.123Z,1944
2018-05-01T07:22:00.136Z,1900
2018-05-01T07:23:09.878Z,1964
2018-05-01T07:24:19.886Z,2004
2018-05-01T07:25:29.890Z,2168
2018-05-01T07:26:39.888Z,2112
2018-05-01T07:27:49.892Z,1908
2018-05-01T07:28:59.903Z,1724
2018-05-01T07:30:09.640Z,1780
2018-05-01T07:31:19.636Z,2168
2018-05-01T07:32:29.438Z,1956
2018-05-01T07:33:39.447Z,2016
2018-05-01T07:34:49.462Z,1980
2018-05-01T07:35:59.461Z,2496
2018-05-01T07:37:08.951Z,2512
2018-05-01T07:38:18.688Z,2424
2018-05-01T07:39:28.423Z,2232
2018-05-01T07:40:38.446Z,2344
2018-05-01T07:41:48.610Z,2252
2018-05-01T07:42:58.511Z,2064
2018-05-01T07:44:08.242Z,2116
2018-05-01T07:45:17.979Z,2224
2018-05-01T07:46:27.985Z,2172
2018-05-01T07:47:37.988Z,2164
2018-05-01T07:48:48.005Z,2444
2018-05-01T07:49:57.761Z,2168
2018-05-01T07:51:07.772Z,2080
2018-05-01T07:52:17.771Z,2304
2018-05-01T07:53:27.778Z,2348
2018-05-01T07:54:37.786Z,1988
2018-05-01T07:55:47.851Z,2216
2018-05-01T07:56:57.852Z,2112
2018-05-01T07:58:07.858Z,2120
2018-05-01T07:59:17.867Z,2052
2018-05-01T08:00:27.760Z,2512
2018-05-01T08:01:37.771Z,2744
2018-05-01T08:02:47.786Z,2564
2018-05-01T08:03:57.802Z,2612
2018-05-01T08:05:07.811Z,2764
2018-05-01T08:06:17.627Z,2964
2018-05-01T08:07:27.410Z,2892
2018-05-01T08:08:37.150Z,2932
2018-05-01T08:09:46.893Z,3032
2018-05-01T08:10:56.900Z,3176
2018-05-01T08:12:07.179Z,3136
2018-05-01T08:13:17.296Z,3280
2018-05-01T08:14:26.841Z,3000
2018-05-01T08:15:36.844Z,3072
2018-05-01T08:16:46.847Z,3096
2018-05-01T08:17:56.587Z,3080
2018-05-01T08:19:06.624Z,3096
2018-05-01T08:20:16.094Z,3264
2018-05-01T08:21:25.564Z,3396
2018-05-01T08:22:35.301Z,3432
2018-05-01T08:23:45.308Z,3656
2018-05-01T08:24:55.049Z,3904
2018-05-01T08:26:04.806Z,3852
2018-05-01T08:27:14.823Z,3780
2018-05-01T08:28:24.839Z,3908
2018-05-01T08:29:34.571Z,4180
2018-05-01T08:30:44.531Z,3544
2018-05-01T08:31:53.731Z,4260
2018-05-01T08:33:03.727Z,4352
2018-05-01T08:34:13.727Z,4464
2018-05-01T08:35:23.733Z,3996
2018-05-01T08:36:33.743Z,3928
2018-05-01T08:37:44.074Z,4272
2018-05-01T08:38:53.818Z,4584
2018-05-01T08:40:03.826Z,4220
2018-05-01T08:41:13.566Z,4928
2018-05-01T08:42:23.572Z,4576
2018-05-01T08:43:33.316Z,4820
2018-05-01T08:44:43.060Z,4164
2018-05-01T08:45:52.796Z,3768
2018-05-01T08:47:02.804Z,4244
2018-05-01T08:48:12.277Z,4444
2018-05-01T08:49:22.280Z,4072
2018-05-01T08:50:31.747Z,3952
2018-05-01T08:51:41.749Z,3928
2018-05-01T08:52:51.756Z,4000
2018-05-01T08:54:01.497Z,3960
2018-05-01T08:55:11.514Z,4844
2018-05-01T08:56:21.260Z,4124
2018-05-01T08:57:31.474Z,3972
2018-05-01T08:58:41.209Z,3800
2018-05-01T08:59:51.212Z,3804
2018-05-01T09:01:01.218Z,4592
2018-05-01T09:02:10.421Z,4176
2018-05-01T09:03:20.164Z,3736
2018-05-01T09:04:29.639Z,3724
2018-05-01T09:05:39.378Z,4004
2018-05-01T09:06:49.380Z,4192
2018-05-01T09:07:59.382Z,4080
2018-05-01T09:09:08.854Z,3888
2018-05-01T09:10:18.590Z,4016
2018-05-01T09:11:28.328Z,3832
2018-05-01T09:12:38.413Z,4084
2018-05-01T09:13:48.415Z,3988
2018-05-01T09:14:58.428Z,4088
2018-05-01T09:16:07.902Z,4344
2018-05-01T09:17:17.904Z,4120
2018-05-01T09:18:28.911Z,4240
2018-05-01T09:19:38.464Z,4624
2018-05-01T09:20:48.203Z,4328
2018-05-01T09:21:57.950Z,4792
2018-05-01T09:23:07.954Z,4868
2018-05-01T09:24:17.952Z,5004
2018-05-01T09:25:27.729Z,4512
2018-05-01T09:26:37.835Z,5068
2018-05-01T09:27:47.844Z,5052
2018-05-01T09:28:57.591Z,5100
2018-05-01T09:30:07.351Z,5088
2018-05-01T09:31:17.367Z,5072
2018-05-01T09:32:26.838Z,5472
2018-05-01T09:33:36.850Z,5368
2018-05-01T09:34:46.376Z,5520
2018-05-01T09:35:56.112Z,6176
2018-05-01T09:37:05.850Z,7056
2018-05-01T09:38:15.324Z,6824
2018-05-01T09:39:25.333Z,6424
2018-05-01T09:40:34.633Z,6200
2018-05-01T09:41:44.366Z,6592
2018-05-01T09:42:54.106Z,7148
2018-05-01T09:44:03.584Z,6028
2018-05-01T09:45:13.596Z,6164
2018-05-01T09:46:23.608Z,5584
2018-05-01T09:47:33.547Z,5500
2018-05-01T09:48:43.054Z,6500
2018-05-01T09:49:52.526Z,5520
2018-05-01T09:51:02.274Z,5832
2018-05-01T09:52:12.010Z,5300
2018-05-01T09:53:22.218Z,5748
2018-05-01T09:54:32.406Z,5808
2018-05-01T09:55:42.478Z,5072
2018-05-01T09:56:52.212Z,5812
2018-05-01T09:58:01.947Z,5752
2018-05-01T09:59:11.952Z,5180
2018-05-01T10:00:21.429Z,5176
2018-05-01T10:01:31.171Z,5848
2018-05-01T10:02:40.905Z,5456
2018-05-01T10:03:50.918Z,4976
2018-05-01T10:05:00.925Z,4908
2018-05-01T10:06:10.966Z,4628
2018-05-01T10:07:20.437Z,4688
2018-05-01T10:08:30.439Z,4424
2018-05-01T10:09:40.545Z,4412
2018-05-01T10:10:50.287Z,4748
2018-05-01T10:12:00.024Z,4188
2018-05-01T10:13:09.764Z,4024
2018-05-01T10:14:19.771Z,4712
2018-05-01T10:15:29.507Z,3952
2018-05-01T10:16:39.520Z,4152
2018-05-01T10:17:48.995Z,4184
2018-05-01T10:18:58.997Z,4408
2018-05-01T10:20:08.200Z,3948
2018-05-01T10:21:17.941Z,4236
2018-05-01T10:22:27.942Z,4072
2018-05-01T10:23:37.947Z,3960
2018-05-01T10:24:47.420Z,4320
2018-05-01T10:25:57.423Z,4528
2018-05-01T10:27:07.171Z,4476
2018-05-01T10:28:17.199Z,4500
2018-05-01T10:29:27.310Z,4944
2018-05-01T10:30:36.781Z,4712
2018-05-01T10:31:46.251Z,5108
2018-05-01T10:32:55.725Z,5168
2018-05-01T10:34:05.740Z,5080
2018-05-01T10:35:15.486Z,4508
2018-05-01T10:36:25.505Z,4440
2018-05-01T10:37:34.709Z,4424
2018-05-01T10:38:44.136Z,4548
2018-05-01T10:39:53.892Z,3820
2018-05-01T10:41:03.361Z,4132
2018-05-01T10:42:12.836Z,3940
2018-05-01T10:43:22.568Z,5080
2018-05-01T10:44:32.038Z,4536
2018-05-01T10:45:41.636Z,5716
2018-05-01T10:46:51.431Z,4664
2018-05-01T10:48:01.171Z,5188
2018-05-01T10:49:10.643Z,5096
2018-05-01T10:50:20.383Z,5152
2018-05-01T10:51:30.120Z,5176
2018-05-01T10:52:39.857Z,5644
2018-05-01T10:53:49.595Z,6632
2018-05-01T10:54:59.330Z,6340
2018-05-01T10:56:07.998Z,5932
2018-05-01T10:57:17.740Z,5292
2018-05-01T10:58:27.753Z,5448
2018-05-01T10:59:37.778Z,4680
2018-05-01T11:00:47.903Z,5100
2018-05-01T11:01:57.908Z,5120
2018-05-01T11:03:07.922Z,5264
2018-05-01T11:04:17.663Z,5456
2018-05-01T11:05:26.867Z,5828
2018-05-01T11:06:36.607Z,6092
2018-05-01T11:07:46.613Z,6196
2018-05-01T11:08:56.615Z,6376
2018-05-01T11:10:05.816Z,7516
2018-05-01T11:11:15.552Z,6564
2018-05-01T11:12:25.383Z,6416
2018-05-01T11:13:34.631Z,6092
2018-05-01T11:14:44.372Z,5596
2018-05-01T11:15:54.380Z,5032
2018-05-01T11:17:04.118Z,4964
2018-05-01T11:18:13.853Z,5456
2018-05-01T11:19:23.648Z,4804
2018-05-01T11:20:33.399Z,4928
2018-05-01T11:21:43.141Z,4832
2018-05-01T11:22:52.884Z,4936
2018-05-01T11:24:02.891Z,5060
2018-05-01T11:25:12.157Z,4324
2018-05-01T11:26:22.196Z,4652
2018-05-01T11:27:32.209Z,4664
2018-05-01T11:28:42.532Z,4544
2018-05-01T11:29:52.000Z,4196
2018-05-01T11:31:01.741Z,4384
2018-05-01T11:32:11.477Z,4904
2018-05-01T11:33:21.484Z,4600
2018-05-01T11:34:30.955Z,4928
2018-05-01T11:35:40.423Z,4228
2018-05-01T11:36:50.439Z,4632
2018-05-01T11:38:00.442Z,4508
2018-05-01T11:39:09.917Z,3604
2018-05-01T11:40:19.936Z,4648
2018-05-01T11:41:29.672Z,4916
2018-05-01T11:42:39.406Z,5156
2018-05-01T11:43:49.150Z,4728
2018-05-01T11:44:59.421Z,4716
2018-05-01T11:46:09.496Z,4708
2018-05-01T11:47:18.963Z,4544
2018-05-01T11:48:28.971Z,4676
2018-05-01T11:49:38.982Z,4516
2018-05-01T11:50:48.720Z,4428
2018-05-01T11:51:58.464Z,4512
2018-05-01T11:53:08.470Z,4588
2018-05-01T11:54:18.204Z,4280
2018-05-01T11:55:28.214Z,4780
2018-05-01T11:56:38.225Z,4672
2018-05-01T11:57:48.232Z,4164
2018-05-01T11:58:58.245Z,4128
2018-05-01T12:00:07.989Z,4224
2018-05-01T12:01:17.994Z,4212
2018-05-01T12:02:27.546Z,4044
2018-05-01T12:03:37.122Z,3920
2018-05-01T12:04:47.133Z,3828
2018-05-01T12:05:56.604Z,3952
2018-05-01T12:07:06.097Z,4004
2018-05-01T12:08:16.119Z,4084
2018-05-01T12:09:26.143Z,4476
2018-05-01T12:10:35.739Z,4460
2018-05-01T12:11:45.859Z,4616
2018-05-01T12:12:55.608Z,4520
2018-05-01T12:14:05.622Z,4412
2018-05-01T12:15:15.631Z,4564
2018-05-01T12:16:25.639Z,4116
2018-05-01T12:17:35.212Z,4044
2018-05-01T12:18:45.366Z,3836
2018-05-01T12:19:55.117Z,4044
2018-05-01T12:21:05.127Z,3864
2018-05-01T12:22:14.869Z,3824
2018-05-01T12:23:24.612Z,3744
2018-05-01T12:24:34.614Z,3744
2018-05-01T12:25:44.622Z,3892
2018-05-01T12:26:54.094Z,3548
2018-05-01T12:28:04.106Z,3280
2018-05-01T12:29:14.113Z,3328
2018-05-01T12:30:23.864Z,3212
2018-05-01T12:31:33.615Z,3104
2018-05-01T12:32:43.088Z,3340
2018-05-01T12:33:53.088Z,3120
2018-05-01T12:35:02.824Z,3116
2018-05-01T12:36:12.029Z,3040
2018-05-01T12:37:21.502Z,2956
2018-05-01T12:38:31.246Z,2984
2018-05-01T12:39:41.249Z,3132
2018-05-01T12:40:51.362Z,2964
2018-05-01T12:42:01.099Z,3024
2018-05-01T12:43:10.572Z,3152
2018-05-01T12:44:20.313Z,3440
2018-05-01T12:45:30.050Z,3028
2018-05-01T12:46:39.821Z,2808
2018-05-01T12:47:49.825Z,2488
2018-05-01T12:48:59.843Z,2500
2018-05-01T12:50:09.595Z,2404
2018-05-01T12:51:19.333Z,2384
2018-05-01T12:52:29.081Z,2648
2018-05-01T12:53:38.557Z,2828
2018-05-01T12:54:47.790Z,2996
2018-05-01T12:55:57.804Z,3076
2018-05-01T12:57:07.283Z,3008
2018-05-01T12:58:17.029Z,2948
2018-05-01T12:59:27.057Z,3084
2018-05-01T13:00:36.795Z,2772
2018-05-01T13:01:46.800Z,2764
2018-05-01T13:02:56.281Z,3136
2018-05-01T13:04:06.068Z,2992
2018-05-01T13:05:15.973Z,2756
2018-05-01T13:06:25.182Z,2976
2018-05-01T13:07:35.197Z,2604
2018-05-01T13:08:45.204Z,2652
2018-05-01T13:09:55.205Z,2808
2018-05-01T13:11:04.945Z,2740
2018-05-01T13:12:14.957Z,3016
2018-05-01T13:13:24.963Z,2908
2018-05-01T13:14:34.975Z,3308
2018-05-01T13:15:44.714Z,3400
2018-05-01T13:16:54.195Z,3364
2018-05-01T13:18:04.203Z,3112
2018-05-01T13:19:14.211Z,2896
2018-05-01T13:20:24.218Z,2772
2018-05-01T13:21:33.688Z,3060
2018-05-01T13:22:43.495Z,3136
2018-05-01T13:23:53.524Z,3188
2018-05-01T13:25:03.260Z,2960
2018-05-01T13:26:12.733Z,3140
2018-05-01T13:27:22.879Z,2916
2018-05-01T13:28:32.491Z,2848
2018-05-01T13:29:42.235Z,2840
2018-05-01T13:30:51.973Z,2988
2018-05-01T13:32:01.708Z,2824
2018-05-01T13:33:11.516Z,2856
2018-05-01T13:34:21.265Z,2936
2018-05-01T13:35:31.279Z,2964
2018-05-01T13:36:41.300Z,2856
2018-05-01T13:37:51.060Z,2960
2018-05-01T13:39:01.222Z,2924
2018-05-01T13:40:10.696Z,2688
2018-05-01T13:41:20.715Z,2292
2018-05-01T13:42:30.188Z,2252
2018-05-01T13:43:39.123Z,2188
2018-05-01T13:44:49.125Z,2264
2018-05-01T13:45:59.138Z,2256
2018-05-01T13:47:08.631Z,2396
2018-05-01T13:48:18.378Z,2416
2018-05-01T13:49:27.850Z,2424
2018-05-01T13:50:37.789Z,2520
2018-05-01T13:51:47.404Z,2520
2018-05-01T13:52:57.138Z,2752
2018-05-01T13:54:06.341Z,2752
2018-05-01T13:55:16.261Z,2716
2018-05-01T13:56:26.297Z,2776
2018-05-01T13:57:35.781Z,2644
2018-05-01T13:58:45.522Z,2560
2018-05-01T13:59:55.535Z,2636
2018-05-01T14:01:05.542Z,2576
2018-05-01T14:02:15.020Z,2616
2018-05-01T14:03:25.041Z,2616
2018-05-01T14:04:35.407Z,2452
2018-05-01T14:05:44.874Z,2376
2018-05-01T14:06:54.884Z,2436
2018-05-01T14:08:04.638Z,2216
2018-05-01T14:09:14.118Z,2160
2018-05-01T14:10:23.592Z,2060
2018-05-01T14:11:33.341Z,2004
2018-05-01T14:12:43.086Z,2120
2018-05-01T14:13:52.829Z,2220
2018-05-01T14:15:02.309Z,2236
2018-05-01T14:16:11.781Z,2088
2018-05-01T14:17:20.982Z,2080
2018-05-01T14:18:30.722Z,1920
2018-05-01T14:19:40.201Z,2064
2018-05-01T14:20:49.675Z,2180
2018-05-01T14:21:59.411Z,2292
2018-05-01T14:23:09.219Z,2232
2018-05-01T14:24:19.223Z,2284
2018-05-01T14:25:29.698Z,2284
2018-05-01T14:26:39.696Z,2216
2018-05-01T14:27:49.445Z,2124
2018-05-01T14:28:59.185Z,2312
2018-05-01T14:30:08.928Z,2424
2018-05-01T14:31:18.704Z,2452
2018-05-01T14:32:28.715Z,2644
2018-05-01T14:33:38.456Z,2660
2018-05-01T14:34:48.205Z,2620
2018-05-01T14:35:58.213Z,2556
2018-05-01T14:37:08.217Z,2344
2018-05-01T14:38:18.233Z,2292
2018-05-01T14:39:27.969Z,2404
2018-05-01T14:40:37.177Z,2736
2018-05-01T14:41:46.915Z,3096
2018-05-01T14:42:56.924Z,3068
2018-05-01T14:44:06.395Z,3168
2018-05-01T14:45:16.137Z,2776
2018-05-01T14:46:25.879Z,2484
2018-05-01T14:47:35.622Z,2444
2018-05-01T14:48:45.089Z,2480
2018-05-01T14:49:54.822Z,2584
2018-05-01T14:51:04.566Z,2412
2018-05-01T14:52:14.311Z,2296
2018-05-01T14:53:24.316Z,2240
2018-05-01T14:54:34.061Z,2196
2018-05-01T14:55:43.536Z,2008
2018-05-01T14:56:53.537Z,1960
2018-05-01T14:58:03.022Z,2028
2018-05-01T14:59:12.765Z,2576
2018-05-01T15:00:22.556Z,2356
2018-05-01T15:01:32.547Z,2008
2018-05-01T15:02:42.541Z,1792
2018-05-01T15:03:52.013Z,1660
2018-05-01T15:05:02.021Z,1616
2018-05-01T15:06:11.804Z,1660
2018-05-01T15:07:21.823Z,1688
2018-05-01T15:08:31.828Z,1780
2018-05-01T15:09:41.846Z,1880
2018-05-01T15:10:51.853Z,1868
2018-05-01T15:12:01.689Z,1768
2018-05-01T15:13:11.706Z,1700
2018-05-01T15:14:21.710Z,1692
2018-05-01T15:15:31.186Z,1720
2018-05-01T15:16:40.669Z,1720
2018-05-01T15:17:50.413Z,1684
2018-05-01T15:19:00.155Z,1648
2018-05-01T15:20:09.905Z,1640
2018-05-01T15:21:19.916Z,1560
2018-05-01T15:22:29.660Z,1572
2018-05-01T15:23:39.130Z,1544
2018-05-01T15:24:48.603Z,1492
2018-05-01T15:25:58.626Z,1504
2018-05-01T15:27:08.097Z,1508
2018-05-01T15:28:17.571Z,1572
2018-05-01T15:29:27.412Z,1724
2018-05-01T15:30:37.563Z,1656
2018-05-01T15:31:47.564Z,1624
2018-05-01T15:32:57.312Z,1548
2018-05-01T15:34:07.065Z,1488
2018-05-01T15:35:17.076Z,1340
2018-05-01T15:36:27.085Z,1328
2018-05-01T15:37:37.176Z,1324
2018-05-01T15:38:47.307Z,1348
2018-05-01T15:39:57.381Z,1400
2018-05-01T15:41:06.901Z,1384
2018-05-01T15:42:16.727Z,1376
2018-05-01T15:43:26.734Z,1444
2018-05-01T15:44:36.739Z,1448
2018-05-01T15:45:46.476Z,1396
2018-05-01T15:46:56.228Z,1340
2018-05-01T15:48:05.968Z,1272
2018-05-01T15:49:15.710Z,1308
2018-05-01T15:50:25.714Z,1304
2018-05-01T15:51:35.766Z,1304
2018-05-01T15:52:45.892Z,1336
2018-05-01T15:53:55.901Z,1456
2018-05-01T15:55:05.933Z,1240
2018-05-01T15:56:15.942Z,1536
2018-05-01T15:57:25.682Z,1388
2018-05-01T15:58:35.431Z,1560
2018-05-01T15:59:45.179Z,1332